createdAt,value
2023-08-11T00:00:09.583Z,17.90
2023-08-11T00:02:38.957Z,17.90
2023-08-11T00:05:08.017Z,17.80
2023-08-11T00:07:37.795Z,17.80
2023-08-11T00:10:07.068Z,17.80
2023-08-11T00:12:36.437Z,17.80
2023-08-11T00:15:04.806Z,17.80
2023-08-11T00:17:33.218Z,17.70
2023-08-11T00:20:01.927Z,17.80
2023-08-11T00:22:30.053Z,17.70
2023-08-11T00:24:59.836Z,17.70
2023-08-11T00:27:28.394Z,17.70
2023-08-11T00:29:57.521Z,17.70
2023-08-11T00:32:25.770Z,17.60
2023-08-11T00:34:54.098Z,17.60
2023-08-11T00:37:22.231Z,17.60
2023-08-11T00:39:52.741Z,17.60
2023-08-11T00:42:22.608Z,17.50
2023-08-11T00:44:50.716Z,17.60
2023-08-11T00:47:19.153Z,17.50
2023-08-11T00:49:47.284Z,17.50
2023-08-11T00:52:15.503Z,17.50
2023-08-11T00:54:45.627Z,17.50
2023-08-11T00:57:15.506Z,17.40
2023-08-11T00:59:47.329Z,17.40
2023-08-11T01:02:15.719Z,17.50
2023-08-11T01:04:43.994Z,17.40
2023-08-11T01:07:19.821Z,17.40
2023-08-11T01:09:56.616Z,17.40
2023-08-11T01:12:33.316Z,17.30
2023-08-11T01:15:12.924Z,17.30
2023-08-11T01:17:43.440Z,17.30
2023-08-11T01:20:17.021Z,17.30
2023-08-11T01:22:46.948Z,17.30
2023-08-11T01:25:17.085Z,17.20
2023-08-11T01:27:47.190Z,17.20
2023-08-11T01:30:15.864Z,17.20
2023-08-11T01:32:43.913Z,17.20
2023-08-11T01:35:15.485Z,17.20
2023-08-11T01:37:45.625Z,17.20
2023-08-11T01:40:15.362Z,17.10
2023-08-11T01:42:50.680Z,17.10
2023-08-11T01:45:23.810Z,17.10
2023-08-11T01:47:53.040Z,17.10
2023-08-11T01:50:22.166Z,17.10
2023-08-11T01:52:52.144Z,17.10
2023-08-11T01:55:20.875Z,17.10
2023-08-11T01:57:58.378Z,17.10
2023-08-11T02:00:29.090Z,17.00
2023-08-11T02:02:58.559Z,17.00
2023-08-11T02:05:27.117Z,17.00
2023-08-11T02:07:56.639Z,17.00
2023-08-11T02:10:25.218Z,17.00
2023-08-11T02:12:54.989Z,17.00
2023-08-11T02:15:23.254Z,17.00
2023-08-11T02:17:51.488Z,17.00
2023-08-11T02:20:22.928Z,16.90
2023-08-11T02:22:51.901Z,16.90
2023-08-11T02:25:20.038Z,16.90
2023-08-11T02:27:48.568Z,16.90
2023-08-11T02:30:19.580Z,16.90
2023-08-11T02:32:47.871Z,16.90
2023-08-11T02:35:18.281Z,16.90
2023-08-11T02:37:47.080Z,16.90
2023-08-11T02:40:16.082Z,16.80
2023-08-11T02:42:49.541Z,16.90
2023-08-11T02:45:19.054Z,16.90
2023-08-11T02:47:47.251Z,16.80
2023-08-11T02:50:15.453Z,16.80
2023-08-11T02:52:44.085Z,16.80
2023-08-11T02:55:12.767Z,16.90
2023-08-11T02:57:40.901Z,16.80
2023-08-11T03:00:14.430Z,16.80
2023-08-11T03:02:47.075Z,16.80
2023-08-11T03:05:16.528Z,16.80
2023-08-11T03:07:45.079Z,16.80
2023-08-11T03:10:13.397Z,16.80
2023-08-11T03:12:41.695Z,16.80
2023-08-11T03:15:10.388Z,16.80
2023-08-11T03:17:38.449Z,16.80
2023-08-11T03:20:13.898Z,16.80
2023-08-11T03:22:43.236Z,16.80
2023-08-11T03:25:12.668Z,16.80
2023-08-11T03:27:43.322Z,16.80
2023-08-11T03:30:13.531Z,16.70
2023-08-11T03:32:41.792Z,16.80
2023-08-11T03:35:11.415Z,16.70
2023-08-11T03:37:39.486Z,16.70
2023-08-11T03:40:10.891Z,16.70
2023-08-11T03:42:39.368Z,16.70
2023-08-11T03:45:09.042Z,16.70
2023-08-11T03:47:37.066Z,16.70
2023-08-11T03:50:05.726Z,16.70
2023-08-11T03:52:35.195Z,16.70
2023-08-11T03:55:03.295Z,16.70
2023-08-11T03:57:31.318Z,16.70
2023-08-11T03:59:59.476Z,16.70
2023-08-11T04:02:28.196Z,16.60
2023-08-11T04:04:56.349Z,16.60
2023-08-11T04:07:24.450Z,16.60
2023-08-11T04:09:55.877Z,16.60
2023-08-11T04:12:25.532Z,16.60
2023-08-11T04:14:53.642Z,16.60
2023-08-11T04:17:21.894Z,16.60
2023-08-11T04:19:50.255Z,16.50
2023-08-11T04:22:29.047Z,16.50
2023-08-11T04:25:07.479Z,16.50
2023-08-11T04:27:35.676Z,16.50
2023-08-11T04:30:03.902Z,16.50
2023-08-11T04:32:32.038Z,16.50
2023-08-11T04:35:00.421Z,16.50
2023-08-11T04:37:28.652Z,16.50
2023-08-11T04:39:56.681Z,16.50
2023-08-11T04:42:26.198Z,16.50
2023-08-11T04:44:54.333Z,16.50
2023-08-11T04:47:22.399Z,16.50
2023-08-11T04:49:50.458Z,16.50
2023-08-11T04:52:18.503Z,16.50
2023-08-11T04:54:46.601Z,16.50
2023-08-11T04:57:14.635Z,16.50
2023-08-11T04:59:44.231Z,16.50
2023-08-11T05:02:12.662Z,16.50
2023-08-11T05:04:41.322Z,16.50
2023-08-11T05:07:09.643Z,16.50
2023-08-11T05:09:38.630Z,16.50
2023-08-11T05:12:07.562Z,16.60
2023-08-11T05:14:35.798Z,16.60
2023-08-11T05:17:05.738Z,16.60
2023-08-11T05:19:33.730Z,16.60
2023-08-11T05:22:01.804Z,16.70
2023-08-11T05:24:29.896Z,16.70
2023-08-11T05:26:59.214Z,16.70
2023-08-11T05:29:27.326Z,16.70
2023-08-11T05:31:55.410Z,16.80
2023-08-11T05:34:25.567Z,16.80
2023-08-11T05:36:54.721Z,16.80
2023-08-11T05:39:22.904Z,16.90
2023-08-11T05:41:50.960Z,17.00
2023-08-11T05:44:18.927Z,17.00
2023-08-11T05:46:47.085Z,17.00
2023-08-11T05:49:15.128Z,17.10
2023-08-11T05:51:44.472Z,17.10
2023-08-11T05:54:12.474Z,17.10
2023-08-11T05:56:40.526Z,17.20
2023-08-11T05:59:08.581Z,17.20
2023-08-11T06:01:36.684Z,17.20
2023-08-11T06:04:05.204Z,17.30
2023-08-11T06:06:33.335Z,17.30
2023-08-11T06:09:02.702Z,17.30
2023-08-11T06:11:30.673Z,17.40
2023-08-11T06:13:58.706Z,17.40
2023-08-11T06:16:26.973Z,17.50
2023-08-11T06:18:55.133Z,17.60
2023-08-11T06:21:23.878Z,17.60
2023-08-11T06:23:51.910Z,17.70
2023-08-11T06:26:21.802Z,17.80
2023-08-11T06:28:49.905Z,17.80
2023-08-11T06:31:20.372Z,17.90
2023-08-11T06:33:48.649Z,18.00
2023-08-11T06:36:16.763Z,18.00
2023-08-11T06:38:44.828Z,18.10
2023-08-11T06:41:13.000Z,18.10
2023-08-11T06:43:42.762Z,18.20
2023-08-11T06:46:10.971Z,18.20
2023-08-11T06:48:39.014Z,18.30
2023-08-11T06:51:07.076Z,18.40
2023-08-11T06:53:35.103Z,18.40
2023-08-11T06:56:03.245Z,18.50
2023-08-11T06:58:31.282Z,18.60
2023-08-11T07:01:00.933Z,18.60
2023-08-11T07:03:29.028Z,18.70
2023-08-11T07:05:57.096Z,18.70
2023-08-11T07:08:28.325Z,18.90
2023-08-11T07:10:56.435Z,18.90
2023-08-11T07:13:24.470Z,19.00
2023-08-11T07:15:52.521Z,19.10
2023-08-11T07:18:21.942Z,19.20
2023-08-11T07:20:50.449Z,19.30
2023-08-11T07:23:18.643Z,19.40
2023-08-11T07:25:46.735Z,19.40
2023-08-11T07:28:14.875Z,19.60
2023-08-11T07:30:42.996Z,19.60
2023-08-11T07:33:11.100Z,19.70
2023-08-11T07:35:40.546Z,19.80
2023-08-11T07:38:10.691Z,19.90
2023-08-11T07:40:41.078Z,20.10
2023-08-11T07:43:09.165Z,20.20
2023-08-11T07:45:37.231Z,20.40
2023-08-11T07:48:05.964Z,20.50
2023-08-11T07:50:34.859Z,20.60
2023-08-11T07:53:04.919Z,20.80
2023-08-11T07:55:32.994Z,20.90
2023-08-11T07:58:01.669Z,20.90
2023-08-11T08:00:29.777Z,21.10
2023-08-11T08:02:58.289Z,21.20
2023-08-11T08:05:26.398Z,21.20
2023-08-11T08:07:54.418Z,21.30
2023-08-11T08:10:24.060Z,21.30
2023-08-11T08:12:52.082Z,21.40
2023-08-11T08:15:20.872Z,21.40
2023-08-11T08:17:49.023Z,21.40
2023-08-11T08:20:18.280Z,21.50
2023-08-11T08:22:47.125Z,21.60
2023-08-11T08:25:16.262Z,21.80
2023-08-11T08:27:46.555Z,21.80
2023-08-11T08:30:14.744Z,21.80
2023-08-11T08:32:44.084Z,21.80
2023-08-11T08:35:12.716Z,21.90
2023-08-11T08:37:40.784Z,21.90
2023-08-11T08:40:10.323Z,22.00
2023-08-11T08:42:39.386Z,22.10
2023-08-11T08:45:10.777Z,22.20
2023-08-11T08:47:41.640Z,22.30
2023-08-11T08:50:11.119Z,22.20
2023-08-11T08:52:40.954Z,22.30
2023-08-11T08:55:10.648Z,22.30
2023-08-11T08:57:39.086Z,22.40
2023-08-11T09:00:10.187Z,22.40
2023-08-11T09:02:38.645Z,22.50
2023-08-11T09:05:08.627Z,22.70
2023-08-11T09:07:36.773Z,22.70
2023-08-11T09:10:05.155Z,22.80
2023-08-11T09:12:33.255Z,22.80
2023-08-11T09:15:10.083Z,22.90
2023-08-11T09:17:39.530Z,22.90
2023-08-11T09:20:11.140Z,23.00
2023-08-11T09:22:39.847Z,23.00
2023-08-11T09:25:08.834Z,23.10
2023-08-11T09:27:37.401Z,23.20
2023-08-11T09:30:06.664Z,23.30
2023-08-11T09:32:36.163Z,23.30
2023-08-11T09:35:09.619Z,23.40
2023-08-11T09:37:38.153Z,23.60
2023-08-11T09:40:09.674Z,23.60
2023-08-11T09:42:38.060Z,23.70
2023-08-11T09:45:07.414Z,23.80
2023-08-11T09:47:36.812Z,23.80
2023-08-11T09:50:05.027Z,23.90
2023-08-11T09:52:35.501Z,23.90
2023-08-11T09:55:07.344Z,24.00
2023-08-11T09:57:36.336Z,24.00
2023-08-11T10:00:05.533Z,24.10
2023-08-11T10:02:36.025Z,24.30
2023-08-11T10:05:09.217Z,24.40
2023-08-11T10:07:42.135Z,24.40
2023-08-11T10:10:14.997Z,24.50
2023-08-11T10:12:49.761Z,24.60
2023-08-11T10:15:21.669Z,24.60
2023-08-11T10:17:50.300Z,24.80
2023-08-11T10:20:19.899Z,24.90
2023-08-11T10:22:47.988Z,25.00
2023-08-11T10:25:16.437Z,25.20
2023-08-11T10:27:45.308Z,25.30
2023-08-11T10:30:16.183Z,25.40
2023-08-11T10:32:44.603Z,25.40
2023-08-11T10:35:21.512Z,25.40
2023-08-11T10:37:59.259Z,25.50
2023-08-11T10:40:35.962Z,25.50
2023-08-11T10:43:05.487Z,25.50
2023-08-11T10:45:34.863Z,25.50
2023-08-11T10:48:09.483Z,25.80
2023-08-11T10:50:40.235Z,26.00
2023-08-11T10:53:09.811Z,26.10
2023-08-11T10:55:38.258Z,26.10
2023-08-11T10:58:16.285Z,26.20
2023-08-11T11:00:44.744Z,26.40
2023-08-11T11:03:14.472Z,26.50
2023-08-11T11:05:44.481Z,26.40
2023-08-11T11:08:12.654Z,26.20
2023-08-11T11:10:49.779Z,26.10
2023-08-11T11:13:18.883Z,26.10
2023-08-11T11:15:47.364Z,26.30
2023-08-11T11:18:15.700Z,26.50
2023-08-11T11:20:46.411Z,26.70
2023-08-11T11:23:14.452Z,26.80
2023-08-11T11:25:42.416Z,26.70
2023-08-11T11:28:12.969Z,26.90
2023-08-11T11:30:41.124Z,26.90
2023-08-11T11:33:09.414Z,27.10
2023-08-11T11:35:37.530Z,27.10
2023-08-11T11:38:07.976Z,27.10
2023-08-11T11:40:36.000Z,27.20
2023-08-11T11:43:04.156Z,27.10
2023-08-11T11:45:32.595Z,27.10
2023-08-11T11:48:01.237Z,27.20
2023-08-11T11:50:31.365Z,27.50
2023-08-11T11:52:59.453Z,27.50
2023-08-11T11:55:29.058Z,27.60
2023-08-11T11:57:58.542Z,27.60
2023-08-11T12:00:26.771Z,27.50
2023-08-11T12:02:55.296Z,27.50
2023-08-11T12:05:23.376Z,27.40
2023-08-11T12:07:52.120Z,27.40
2023-08-11T12:10:22.360Z,27.50
2023-08-11T12:13:00.496Z,27.60
2023-08-11T12:15:33.011Z,27.50
2023-08-11T12:18:04.337Z,27.40
2023-08-11T12:20:32.489Z,27.30
2023-08-11T12:23:00.857Z,27.20
2023-08-11T12:25:28.908Z,27.20
2023-08-11T12:27:58.516Z,26.90
2023-08-11T12:30:27.117Z,26.70
2023-08-11T12:32:55.228Z,26.80
2023-08-11T12:35:23.430Z,27.00
2023-08-11T12:37:53.040Z,27.10
2023-08-11T12:40:22.694Z,26.90
2023-08-11T12:42:50.780Z,26.80
2023-08-11T12:45:20.361Z,26.50
2023-08-11T12:47:48.482Z,26.50
2023-08-11T12:50:16.624Z,26.70
2023-08-11T12:52:44.621Z,26.70
2023-08-11T12:55:14.183Z,26.90
2023-08-11T12:57:43.956Z,26.90
2023-08-11T13:00:13.429Z,27.00
2023-08-11T13:02:42.898Z,26.90
2023-08-11T13:05:11.017Z,26.90
2023-08-11T13:07:39.038Z,26.60
2023-08-11T13:10:07.599Z,26.50
2023-08-11T13:12:35.705Z,26.70
2023-08-11T13:15:03.806Z,26.80
2023-08-11T13:17:31.992Z,27.10
2023-08-11T13:20:04.867Z,27.40
2023-08-11T13:22:33.004Z,27.40
2023-08-11T13:25:01.039Z,27.20
2023-08-11T13:27:29.102Z,27.00
2023-08-11T13:29:57.187Z,27.10
2023-08-11T13:32:25.387Z,27.30
2023-08-11T13:34:53.690Z,27.60
2023-08-11T13:37:23.172Z,27.70
2023-08-11T13:39:51.233Z,27.80
2023-08-11T13:42:19.271Z,27.60
2023-08-11T13:44:47.294Z,27.40
2023-08-11T13:47:15.380Z,27.40
2023-08-11T13:49:43.403Z,27.50
2023-08-11T13:52:11.775Z,27.80
2023-08-11T13:54:41.706Z,27.70
2023-08-11T13:57:09.778Z,27.70
2023-08-11T13:59:37.840Z,27.50
2023-08-11T14:02:05.931Z,27.50
2023-08-11T14:04:33.968Z,27.70
2023-08-11T14:07:17.468Z,27.80
2023-08-11T14:09:51.464Z,27.90
2023-08-11T14:12:20.400Z,27.80
2023-08-11T14:14:48.487Z,27.70
2023-08-11T14:17:16.503Z,27.60
2023-08-11T14:19:44.578Z,27.30
2023-08-11T14:22:12.667Z,27.20
2023-08-11T14:24:40.750Z,27.10
2023-08-11T14:27:10.185Z,27.00
2023-08-11T14:29:38.284Z,27.00
2023-08-11T14:32:23.875Z,27.10
2023-08-11T14:34:53.378Z,27.20
2023-08-11T14:37:22.558Z,26.90
2023-08-11T14:39:50.635Z,26.80
2023-08-11T14:42:20.089Z,26.90
2023-08-11T14:44:48.093Z,26.80
2023-08-11T14:47:16.350Z,26.50
2023-08-11T14:49:45.013Z,26.50
2023-08-11T14:52:14.699Z,26.50
2023-08-11T14:54:43.284Z,26.30
2023-08-11T14:57:14.108Z,26.20
2023-08-11T14:59:43.870Z,26.00
2023-08-11T15:02:12.380Z,26.00
2023-08-11T15:04:40.563Z,25.80
2023-08-11T15:07:08.687Z,25.60
2023-08-11T15:09:36.776Z,25.50
2023-08-11T15:12:05.269Z,25.40
2023-08-11T15:14:33.362Z,25.40
2023-08-11T15:17:02.769Z,25.30
2023-08-11T15:19:31.563Z,25.30
2023-08-11T15:21:59.863Z,25.10
2023-08-11T15:24:27.945Z,25.20
2023-08-11T15:26:56.042Z,25.20
2023-08-11T15:29:24.003Z,25.20
2023-08-11T15:31:54.610Z,25.10
2023-08-11T15:34:24.378Z,25.00
2023-08-11T15:36:52.490Z,24.90
2023-08-11T15:39:21.022Z,24.70
2023-08-11T15:41:49.093Z,24.70
2023-08-11T15:44:17.194Z,24.60
2023-08-11T15:46:46.131Z,24.60
2023-08-11T15:49:14.205Z,24.50
2023-08-11T15:51:43.632Z,24.50
2023-08-11T15:54:11.796Z,24.40
2023-08-11T15:56:39.852Z,24.50
2023-08-11T15:59:09.336Z,24.40
2023-08-11T16:01:37.431Z,24.40
2023-08-11T16:04:06.297Z,24.30
2023-08-11T16:06:34.365Z,24.30
2023-08-11T16:09:05.052Z,24.20
2023-08-11T16:11:33.144Z,24.20
2023-08-11T16:14:01.186Z,24.10
2023-08-11T16:16:30.452Z,24.10
2023-08-11T16:18:58.584Z,24.10
2023-08-11T16:21:26.640Z,24.00
2023-08-11T16:23:54.711Z,24.00
2023-08-11T16:26:24.135Z,24.10
2023-08-11T16:28:52.223Z,24.10
2023-08-11T16:31:20.556Z,24.00
2023-08-11T16:33:48.552Z,23.90
2023-08-11T16:36:18.750Z,23.90
2023-08-11T16:38:48.304Z,23.90
2023-08-11T16:41:16.467Z,23.90
2023-08-11T16:43:45.956Z,24.00
2023-08-11T16:46:16.926Z,23.90
2023-08-11T16:48:45.200Z,23.80
2023-08-11T16:51:15.057Z,23.70
2023-08-11T16:53:43.177Z,23.60
2023-08-11T16:56:11.487Z,23.50
2023-08-11T16:58:39.531Z,23.40
2023-08-11T17:01:08.970Z,23.40
2023-08-11T17:03:37.227Z,23.30
2023-08-11T17:06:05.996Z,23.30
2023-08-11T17:08:34.418Z,23.30
2023-08-11T17:11:04.010Z,23.30
2023-08-11T17:13:32.349Z,23.30
2023-08-11T17:16:00.493Z,23.30
2023-08-11T17:18:29.970Z,23.30
2023-08-11T17:20:58.150Z,23.20
2023-08-11T17:23:26.241Z,23.20
2023-08-11T17:25:54.404Z,23.20
2023-08-11T17:28:22.471Z,23.20
2023-08-11T17:30:50.605Z,23.20
2023-08-11T17:33:18.711Z,23.10
2023-08-11T17:35:48.135Z,22.90
2023-08-11T17:38:16.226Z,22.90
2023-08-11T17:40:44.326Z,22.90
2023-08-11T17:43:12.392Z,22.90
2023-08-11T17:45:40.440Z,22.90
2023-08-11T17:48:08.623Z,22.80
2023-08-11T17:50:36.690Z,22.80
2023-08-11T17:53:06.403Z,22.80
2023-08-11T17:55:34.782Z,22.80
2023-08-11T17:58:02.978Z,22.70
2023-08-11T18:00:31.084Z,22.70
2023-08-11T18:02:59.207Z,22.60
2023-08-11T18:05:27.350Z,22.60
2023-08-11T18:07:55.762Z,22.60
2023-08-11T18:10:25.259Z,22.50
2023-08-11T18:12:53.312Z,22.50
2023-08-11T18:15:22.997Z,22.40
2023-08-11T18:17:52.901Z,22.50
2023-08-11T18:20:22.818Z,22.40
2023-08-11T18:22:51.127Z,22.40
2023-08-11T18:25:19.354Z,22.40
2023-08-11T18:27:48.778Z,22.30
2023-08-11T18:30:16.892Z,22.30
2023-08-11T18:32:46.267Z,22.20
2023-08-11T18:35:14.568Z,22.20
2023-08-11T18:37:43.268Z,22.20
2023-08-11T18:40:12.243Z,22.20
2023-08-11T18:42:40.282Z,22.20
2023-08-11T18:45:10.626Z,22.20
2023-08-11T18:47:38.695Z,22.10
2023-08-11T18:50:08.497Z,22.10
2023-08-11T18:52:36.496Z,22.00
2023-08-11T18:55:04.723Z,22.10
2023-08-11T18:57:32.805Z,22.00
2023-08-11T19:00:00.961Z,22.00
2023-08-11T19:02:30.349Z,22.00
2023-08-11T19:04:58.366Z,21.90
2023-08-11T19:07:27.854Z,21.90
2023-08-11T19:09:55.839Z,21.80
2023-08-11T19:12:24.107Z,21.80
2023-08-11T19:14:52.189Z,21.80
2023-08-11T19:17:21.722Z,21.80
2023-08-11T19:19:52.202Z,21.70
2023-08-11T19:22:20.613Z,21.70
2023-08-11T19:24:48.708Z,21.70
2023-08-11T19:27:16.744Z,21.70
2023-08-11T19:29:44.841Z,21.60
2023-08-11T19:32:13.332Z,21.60
2023-08-11T19:34:41.538Z,21.60
2023-08-11T19:37:11.157Z,21.50
2023-08-11T19:39:39.177Z,21.50
2023-08-11T19:42:07.560Z,21.50
2023-08-11T19:44:37.362Z,21.50
2023-08-11T19:47:05.638Z,21.50
2023-08-11T19:49:33.681Z,21.40
2023-08-11T19:52:01.849Z,21.50
2023-08-11T19:54:31.206Z,21.40
2023-08-11T19:56:59.208Z,21.40
2023-08-11T19:59:27.269Z,21.40
2023-08-11T20:01:55.625Z,21.40
2023-08-11T20:04:24.415Z,21.40
2023-08-11T20:06:52.657Z,21.30
2023-08-11T20:09:23.286Z,21.30
2023-08-11T20:11:53.130Z,21.30
2023-08-11T20:14:21.229Z,21.20
2023-08-11T20:16:51.786Z,21.20
2023-08-11T20:19:20.225Z,21.20
2023-08-11T20:21:49.402Z,21.20
2023-08-11T20:24:17.741Z,21.20
2023-08-11T20:26:45.816Z,21.20
2023-08-11T20:29:16.192Z,21.10
2023-08-11T20:31:44.297Z,21.10
2023-08-11T20:34:12.352Z,21.10
2023-08-11T20:36:40.434Z,21.10
2023-08-11T20:39:08.504Z,21.10
2023-08-11T20:41:36.593Z,21.00
2023-08-11T20:44:05.114Z,21.00
2023-08-11T20:46:34.546Z,21.00
2023-08-11T20:49:03.418Z,20.90
2023-08-11T20:51:31.442Z,20.90
2023-08-11T20:53:59.509Z,20.90
2023-08-11T20:56:27.516Z,20.90
2023-08-11T20:58:55.655Z,20.90
2023-08-11T21:01:23.911Z,20.90
2023-08-11T21:03:53.407Z,20.90
2023-08-11T21:06:23.068Z,20.90
2023-08-11T21:08:52.476Z,20.80
2023-08-11T21:11:20.554Z,20.80
2023-08-11T21:13:48.632Z,20.80
2023-08-11T21:16:17.054Z,20.70
2023-08-11T21:18:45.210Z,20.70
2023-08-11T21:21:14.776Z,20.20
2023-08-11T21:23:42.891Z,20.60
2023-08-11T21:26:10.929Z,20.60
2023-08-11T21:28:38.965Z,20.60
2023-08-11T21:31:17.581Z,20.60
2023-08-11T21:33:46.516Z,20.50
2023-08-11T21:36:15.980Z,20.50
2023-08-11T21:38:44.005Z,20.50
2023-08-11T21:41:11.939Z,20.40
2023-08-11T21:43:40.019Z,20.40
2023-08-11T21:46:10.424Z,20.40
2023-08-11T21:48:38.506Z,20.40
2023-08-11T21:51:06.639Z,20.40
2023-08-11T21:53:36.031Z,20.30
2023-08-11T21:56:04.107Z,20.30
2023-08-11T21:58:32.107Z,20.30
2023-08-11T22:01:00.917Z,20.30
2023-08-11T22:03:29.622Z,20.20
2023-08-11T22:05:57.651Z,20.20
2023-08-11T22:08:25.835Z,20.20
2023-08-11T22:10:55.587Z,20.10
2023-08-11T22:13:23.873Z,20.10
2023-08-11T22:15:52.648Z,20.10
2023-08-11T22:18:20.747Z,20.00
2023-08-11T22:20:48.822Z,20.00
2023-08-11T22:23:17.109Z,20.00
2023-08-11T22:25:45.204Z,20.00
2023-08-11T22:28:14.613Z,19.90
2023-08-11T22:30:42.743Z,19.90
2023-08-11T22:33:11.237Z,19.90
2023-08-11T22:35:41.496Z,19.90
2023-08-11T22:38:09.583Z,19.90
2023-08-11T22:40:38.475Z,19.80
2023-08-11T22:43:06.671Z,19.80
2023-08-11T22:45:36.074Z,19.80
2023-08-11T22:48:04.365Z,19.70
2023-08-11T22:50:32.432Z,19.70
2023-08-11T22:53:00.494Z,19.80
2023-08-11T22:55:28.535Z,19.70
2023-08-11T22:57:57.298Z,19.70
2023-08-11T23:00:25.707Z,19.70
2023-08-11T23:02:55.305Z,19.70
2023-08-11T23:05:23.958Z,19.70
2023-08-11T23:07:55.110Z,19.70
2023-08-11T23:10:23.220Z,19.70
2023-08-11T23:12:51.250Z,19.70
2023-08-11T23:15:19.915Z,19.70
2023-08-11T23:17:47.978Z,19.70
2023-08-11T23:20:17.448Z,19.70
2023-08-11T23:22:45.529Z,19.70
2023-08-11T23:25:13.688Z,19.70
2023-08-11T23:27:42.139Z,19.70
2023-08-11T23:30:11.322Z,19.70
2023-08-11T23:32:39.411Z,19.70
2023-08-11T23:35:08.017Z,19.70
2023-08-11T23:37:37.503Z,19.60
2023-08-11T23:40:06.392Z,19.60
2023-08-11T23:42:34.484Z,19.60
2023-08-11T23:45:06.757Z,19.60
2023-08-11T23:47:36.416Z,19.60
2023-08-11T23:50:04.901Z,19.60
2023-08-11T23:52:35.539Z,19.50
2023-08-11T23:55:07.032Z,19.60
2023-08-11T23:57:37.142Z,19.50
